createdAt,value
2019-03-10T00:01:40.184Z,5.27
2019-03-10T00:04:06.339Z,5.34
2019-03-10T00:06:32.510Z,5.33
2019-03-10T00:08:59.022Z,5.25
2019-03-10T00:11:25.093Z,5.30
2019-03-10T00:13:51.479Z,5.35
2019-03-10T00:16:17.603Z,5.30
2019-03-10T00:18:43.678Z,5.37
2019-03-10T00:21:09.895Z,5.36
2019-03-10T00:23:36.035Z,5.21
2019-03-10T00:26:02.146Z,5.27
2019-03-10T00:28:28.490Z,5.27
2019-03-10T00:30:56.250Z,5.40
2019-03-10T00:33:22.456Z,5.28
2019-03-10T00:35:48.588Z,5.32
2019-03-10T00:38:15.222Z,5.28
2019-03-10T00:41:05.121Z,5.23
2019-03-10T00:43:47.100Z,5.25
2019-03-10T00:46:20.144Z,5.26
2019-03-10T00:49:02.150Z,5.67
2019-03-10T00:52:08.398Z,5.71
2019-03-10T00:54:36.895Z,5.53
2019-03-10T00:57:03.268Z,5.60
2019-03-10T00:59:30.191Z,5.64
2019-03-10T01:01:56.272Z,5.62
2019-03-10T01:04:22.610Z,5.59
2019-03-10T01:06:49.474Z,5.54
2019-03-10T01:09:15.671Z,5.64
2019-03-10T01:11:41.908Z,5.77
2019-03-10T01:14:08.032Z,5.75
2019-03-10T01:16:34.915Z,5.69
2019-03-10T01:19:02.531Z,5.71
2019-03-10T01:21:28.771Z,5.81
2019-03-10T01:23:54.863Z,5.77
2019-03-10T01:26:21.164Z,5.93
2019-03-10T01:28:47.210Z,5.93
2019-03-10T01:31:38.644Z,5.84
2019-03-10T01:34:39.266Z,5.92
2019-03-10T01:37:05.462Z,5.89
2019-03-10T01:39:31.554Z,5.94
2019-03-10T01:41:58.598Z,6.12
2019-03-10T01:44:24.927Z,5.96
2019-03-10T01:46:51.139Z,5.98
2019-03-10T01:49:17.618Z,6.13
2019-03-10T01:51:51.780Z,6.08
2019-03-10T01:54:17.988Z,6.07
2019-03-10T01:56:44.574Z,6.11
2019-03-10T01:59:10.744Z,6.13
2019-03-10T02:01:36.905Z,6.19
2019-03-10T02:04:03.199Z,6.24
2019-03-10T02:06:29.614Z,6.31
2019-03-10T02:08:56.008Z,6.26
2019-03-10T02:11:22.338Z,6.25
2019-03-10T02:13:48.459Z,6.21
2019-03-10T02:16:14.712Z,6.14
2019-03-10T02:18:41.002Z,6.14
2019-03-10T02:21:07.305Z,6.20
2019-03-10T02:23:33.487Z,6.14
2019-03-10T02:25:59.758Z,6.14
2019-03-10T02:28:25.815Z,6.12
2019-03-10T02:30:52.060Z,6.14
2019-03-10T02:33:18.176Z,6.17
2019-03-10T02:35:44.361Z,6.21
2019-03-10T02:38:10.515Z,6.15
2019-03-10T02:40:37.199Z,6.24
2019-03-10T02:43:03.300Z,6.21
2019-03-10T02:45:29.386Z,6.14
2019-03-10T02:47:55.460Z,6.17
2019-03-10T02:50:21.644Z,6.33
2019-03-10T02:52:47.808Z,6.29
2019-03-10T02:55:13.931Z,6.20
2019-03-10T02:57:40.023Z,6.24
2019-03-10T03:00:10.107Z,6.30
2019-03-10T03:02:36.531Z,6.34
2019-03-10T03:05:08.266Z,6.34
2019-03-10T03:07:34.297Z,6.36
2019-03-10T03:10:00.831Z,6.43
2019-03-10T03:12:27.017Z,6.29
2019-03-10T03:14:54.415Z,6.27
2019-03-10T03:17:20.564Z,6.33
2019-03-10T03:19:46.622Z,6.17
2019-03-10T03:22:12.687Z,6.24
2019-03-10T03:24:38.712Z,6.26
2019-03-10T03:27:05.037Z,6.25
2019-03-10T03:29:31.167Z,6.33
2019-03-10T03:31:57.368Z,6.14
2019-03-10T03:34:23.552Z,6.16
2019-03-10T03:36:49.859Z,6.00
2019-03-10T03:39:25.336Z,6.08
2019-03-10T03:41:51.625Z,6.10
2019-03-10T03:44:18.130Z,6.11
2019-03-10T03:46:44.179Z,6.10
2019-03-10T03:49:10.315Z,6.12
2019-03-10T03:51:36.513Z,5.98
2019-03-10T03:54:02.737Z,6.10
2019-03-10T03:56:29.108Z,6.09
2019-03-10T03:58:55.709Z,6.05
2019-03-10T04:01:32.509Z,6.15
2019-03-10T04:04:18.526Z,6.13
2019-03-10T04:06:58.256Z,6.13
2019-03-10T04:09:24.476Z,6.11
2019-03-10T04:11:50.622Z,6.15
2019-03-10T04:14:16.806Z,6.16
2019-03-10T04:16:43.016Z,6.21
2019-03-10T04:19:09.287Z,6.04
2019-03-10T04:21:35.796Z,6.00
2019-03-10T04:24:01.923Z,6.06
2019-03-10T04:26:28.483Z,6.02
2019-03-10T04:28:54.819Z,5.94
2019-03-10T04:31:21.219Z,5.95
2019-03-10T04:33:47.264Z,6.00
2019-03-10T04:36:13.623Z,5.94
2019-03-10T04:38:39.770Z,6.06
2019-03-10T04:41:05.827Z,5.99
2019-03-10T04:43:31.926Z,5.95
2019-03-10T04:45:58.010Z,5.94
2019-03-10T04:48:24.137Z,6.00
2019-03-10T04:50:50.260Z,6.00
2019-03-10T04:53:16.390Z,5.96
2019-03-10T04:55:44.490Z,5.92
2019-03-10T04:58:12.722Z,5.83
2019-03-10T05:00:41.838Z,5.91
2019-03-10T05:03:08.057Z,5.85
2019-03-10T05:05:34.305Z,5.92
2019-03-10T05:08:00.782Z,5.82
2019-03-10T05:10:27.257Z,5.85
2019-03-10T05:12:53.485Z,6.04
2019-03-10T05:15:19.518Z,5.98
2019-03-10T05:17:45.690Z,6.02
2019-03-10T05:20:12.178Z,6.05
2019-03-10T05:22:38.335Z,6.02
2019-03-10T05:25:11.103Z,5.95
2019-03-10T05:27:37.295Z,5.90
2019-03-10T05:30:07.248Z,6.02
2019-03-10T05:32:34.952Z,5.90
2019-03-10T05:35:01.019Z,5.39
2019-03-10T05:37:27.142Z,5.03
2019-03-10T05:39:53.590Z,4.69
2019-03-10T05:42:19.684Z,4.65
2019-03-10T05:44:45.976Z,4.77
2019-03-10T05:47:13.919Z,4.69
2019-03-10T05:49:40.260Z,4.75
2019-03-10T05:52:06.458Z,4.86
2019-03-10T05:54:32.568Z,4.81
2019-03-10T05:56:58.811Z,4.88
2019-03-10T05:59:25.232Z,5.01
2019-03-10T06:01:51.751Z,5.07
2019-03-10T06:04:17.920Z,5.02
2019-03-10T06:06:44.035Z,5.16
2019-03-10T06:09:10.277Z,5.13
2019-03-10T06:11:36.527Z,5.12
2019-03-10T06:14:02.783Z,5.08
2019-03-10T06:16:29.085Z,5.07
2019-03-10T06:18:55.135Z,4.97
2019-03-10T06:21:21.223Z,5.13
2019-03-10T06:23:47.788Z,5.05
2019-03-10T06:26:13.885Z,5.21
2019-03-10T06:28:39.911Z,5.17
2019-03-10T06:31:06.038Z,5.30
2019-03-10T06:33:32.120Z,5.36
2019-03-10T06:35:58.173Z,5.57
2019-03-10T06:38:24.197Z,5.51
2019-03-10T06:40:50.632Z,5.53
2019-03-10T06:43:16.672Z,5.41
2019-03-10T06:45:42.762Z,5.32
2019-03-10T06:48:08.935Z,5.33
2019-03-10T06:50:35.069Z,5.39
2019-03-10T06:53:01.185Z,5.40
2019-03-10T06:55:27.282Z,5.24
2019-03-10T06:57:53.348Z,5.42
2019-03-10T07:00:19.466Z,5.33
2019-03-10T07:02:45.664Z,5.15
2019-03-10T07:05:11.825Z,5.37
2019-03-10T07:07:37.942Z,5.40
2019-03-10T07:10:07.344Z,5.60
2019-03-10T07:12:33.650Z,5.79
2019-03-10T07:14:59.875Z,6.15
2019-03-10T07:17:26.181Z,6.39
2019-03-10T07:19:52.400Z,6.52
2019-03-10T07:22:21.939Z,6.73
2019-03-10T07:24:47.995Z,6.90
2019-03-10T07:27:14.402Z,7.20
2019-03-10T07:29:42.368Z,7.71
2019-03-10T07:32:13.148Z,7.64
2019-03-10T07:34:41.355Z,7.68
2019-03-10T07:37:21.434Z,8.05
2019-03-10T07:39:52.452Z,7.91
2019-03-10T07:42:32.501Z,7.70
2019-03-10T07:45:00.538Z,7.23
2019-03-10T07:47:40.486Z,7.13
2019-03-10T07:50:14.658Z,6.95
2019-03-10T07:52:42.765Z,7.38
2019-03-10T07:55:12.425Z,7.49
2019-03-10T07:57:43.311Z,7.77
2019-03-10T08:00:11.634Z,7.99
2019-03-10T08:02:42.168Z,8.20
2019-03-10T08:05:27.682Z,8.15
2019-03-10T08:08:14.000Z,8.28
2019-03-10T08:10:44.985Z,8.60
2019-03-10T08:13:25.121Z,8.42
2019-03-10T08:16:01.907Z,8.77
2019-03-10T08:18:31.365Z,9.03
2019-03-10T08:21:02.421Z,8.83
2019-03-10T08:23:30.378Z,8.98
2019-03-10T08:26:08.997Z,9.20
2019-03-10T08:28:37.023Z,9.10
2019-03-10T08:31:17.261Z,9.10
2019-03-10T08:34:03.535Z,9.22
2019-03-10T08:36:31.620Z,9.42
2019-03-10T08:39:08.854Z,9.08
2019-03-10T08:41:43.046Z,9.49
2019-03-10T08:44:29.450Z,9.54
2019-03-10T08:46:57.482Z,9.47
2019-03-10T08:49:44.796Z,10.08
2019-03-10T08:52:04.804Z,10.70
2019-03-10T08:54:39.009Z,10.97
2019-03-10T08:57:07.326Z,11.01
2019-03-10T09:02:30.691Z,9.86
2019-03-10T09:04:58.747Z,9.98
2019-03-10T09:07:38.605Z,9.91
2019-03-10T09:10:28.128Z,9.97
2019-03-10T09:13:11.734Z,9.96
2019-03-10T09:15:46.048Z,9.95
2019-03-10T09:18:14.199Z,10.48
2019-03-10T09:20:44.905Z,10.50
2019-03-10T09:23:12.978Z,10.56
2019-03-10T09:25:52.905Z,10.26
2019-03-10T09:28:24.032Z,10.13
2019-03-10T09:30:52.162Z,9.79
2019-03-10T09:33:20.280Z,8.77
2019-03-10T09:35:54.252Z,8.97
2019-03-10T09:38:25.699Z,9.06
2019-03-10T09:40:57.082Z,8.77
2019-03-10T09:43:28.303Z,8.52
2019-03-10T09:46:05.862Z,8.53
2019-03-10T09:48:33.922Z,8.49
2019-03-10T09:51:03.095Z,8.57
2019-03-10T09:53:37.097Z,8.72
2019-03-10T09:56:20.328Z,8.28
2019-03-10T09:58:54.445Z,8.33
2019-03-10T10:01:27.991Z,8.34
2019-03-10T10:03:56.091Z,8.45
2019-03-10T10:06:33.469Z,8.47
2019-03-10T10:09:04.067Z,8.51
2019-03-10T10:11:37.841Z,8.49
2019-03-10T10:14:13.014Z,8.49
2019-03-10T10:16:46.811Z,8.44
2019-03-10T10:19:31.958Z,8.45
2019-03-10T10:22:12.239Z,8.91
2019-03-10T10:24:56.678Z,8.66
2019-03-10T10:27:24.639Z,8.78
2019-03-10T10:30:09.351Z,9.01
2019-03-10T10:32:46.169Z,9.32
2019-03-10T10:35:14.327Z,9.18
2019-03-10T10:37:42.417Z,9.30
2019-03-10T10:40:28.766Z,9.64
2019-03-10T10:43:08.717Z,9.67
2019-03-10T10:45:57.163Z,10.28
2019-03-10T10:48:37.322Z,10.05
2019-03-10T10:51:07.125Z,9.34
2019-03-10T10:53:53.134Z,9.25
2019-03-10T10:56:27.283Z,9.65
2019-03-10T10:59:10.839Z,9.72
2019-03-10T11:01:41.414Z,9.61
2019-03-10T11:04:26.040Z,9.62
2019-03-10T11:07:09.801Z,9.62
2019-03-10T11:09:50.027Z,9.50
2019-03-10T11:12:27.120Z,9.10
2019-03-10T11:14:56.268Z,9.12
2019-03-10T11:17:30.112Z,9.24
2019-03-10T11:20:16.495Z,9.33
2019-03-10T11:22:50.550Z,9.32
2019-03-10T11:25:27.871Z,9.35
2019-03-10T11:28:01.922Z,9.76
2019-03-10T11:30:34.042Z,9.84
2019-03-10T11:33:10.717Z,10.18
2019-03-10T11:35:38.850Z,10.14
2019-03-10T11:38:13.122Z,9.86
2019-03-10T11:40:44.206Z,10.21
2019-03-10T11:43:30.161Z,10.42
2019-03-10T11:46:29.729Z,10.57
2019-03-10T11:49:14.235Z,10.97
2019-03-10T11:51:42.355Z,10.70
2019-03-10T11:54:22.539Z,10.58
2019-03-10T11:56:50.557Z,10.75
2019-03-10T11:59:18.680Z,10.82
2019-03-10T12:01:55.743Z,11.05
2019-03-10T12:04:26.710Z,11.07
2019-03-10T12:06:57.477Z,10.67
2019-03-10T12:09:25.694Z,11.03
2019-03-10T12:11:51.869Z,11.46
2019-03-10T12:14:18.433Z,11.89
2019-03-10T12:16:44.582Z,12.45
2019-03-10T12:19:11.081Z,12.76
2019-03-10T12:21:37.103Z,12.55
2019-03-10T12:24:03.242Z,12.94
2019-03-10T12:26:29.366Z,12.64
2019-03-10T12:28:55.450Z,12.19
2019-03-10T12:31:21.542Z,12.95
2019-03-10T12:33:47.598Z,12.52
2019-03-10T12:36:13.702Z,12.62
2019-03-10T12:38:39.830Z,13.03
2019-03-10T12:41:06.182Z,12.69
2019-03-10T12:43:32.476Z,12.26
2019-03-10T12:45:58.608Z,11.93
2019-03-10T12:48:24.665Z,11.92
2019-03-10T12:50:50.768Z,11.84
2019-03-10T12:53:16.971Z,11.75
2019-03-10T12:55:43.173Z,11.57
2019-03-10T12:58:09.393Z,10.85
2019-03-10T13:00:35.524Z,11.04
2019-03-10T13:03:01.950Z,11.29
2019-03-10T13:05:28.497Z,11.15
2019-03-10T13:07:54.853Z,11.24
2019-03-10T13:10:21.095Z,11.11
2019-03-10T13:12:47.276Z,10.48
2019-03-10T13:15:13.471Z,10.64
2019-03-10T13:17:39.700Z,10.72
2019-03-10T13:20:10.749Z,10.63
2019-03-10T13:22:37.001Z,10.67
2019-03-10T13:25:06.312Z,10.64
2019-03-10T13:27:32.446Z,10.37
2019-03-10T13:29:58.507Z,10.39
2019-03-10T13:32:24.646Z,10.87
2019-03-10T13:34:50.965Z,10.50
2019-03-10T13:37:17.148Z,10.25
2019-03-10T13:39:43.280Z,10.37
2019-03-10T13:42:10.631Z,10.19
2019-03-10T13:44:36.725Z,10.23
2019-03-10T13:47:02.876Z,10.66
2019-03-10T13:49:29.112Z,10.70
2019-03-10T13:51:55.240Z,10.72
2019-03-10T13:54:21.462Z,10.68
2019-03-10T13:56:47.613Z,10.54
2019-03-10T13:59:13.740Z,10.38
2019-03-10T14:01:39.885Z,10.40
2019-03-10T14:04:06.022Z,10.24
2019-03-10T14:06:32.338Z,10.03
2019-03-10T14:08:58.366Z,10.35
2019-03-10T14:11:24.562Z,10.21
2019-03-10T14:13:50.682Z,10.35
2019-03-10T14:16:16.867Z,10.12
2019-03-10T14:18:43.012Z,10.14
2019-03-10T14:21:09.162Z,9.86
2019-03-10T14:23:35.260Z,9.78
2019-03-10T14:26:08.914Z,9.76
2019-03-10T14:28:35.294Z,9.81
2019-03-10T14:31:01.356Z,9.92
2019-03-10T14:33:27.755Z,9.59
2019-03-10T14:35:53.776Z,9.46
2019-03-10T14:38:19.905Z,9.53
2019-03-10T14:40:48.211Z,9.59
2019-03-10T14:43:14.655Z,9.55
2019-03-10T14:45:40.681Z,9.44
2019-03-10T14:48:06.763Z,9.26
2019-03-10T14:50:32.832Z,9.36
2019-03-10T14:52:58.838Z,9.29
2019-03-10T14:55:25.292Z,9.19
2019-03-10T14:57:51.519Z,9.17
2019-03-10T15:00:28.586Z,9.20
2019-03-10T15:02:54.808Z,9.30
2019-03-10T15:05:21.144Z,9.15
2019-03-10T15:07:47.581Z,9.26
2019-03-10T15:10:14.189Z,9.18
2019-03-10T15:12:40.718Z,9.17
2019-03-10T15:15:09.945Z,9.12
2019-03-10T15:17:36.136Z,9.25
2019-03-10T15:20:05.008Z,9.62
2019-03-10T15:22:31.435Z,9.52
2019-03-10T15:24:57.931Z,9.29
2019-03-10T15:27:24.369Z,9.22
2019-03-10T15:29:50.902Z,9.30
2019-03-10T15:32:17.130Z,9.24
2019-03-10T15:34:43.161Z,9.21
2019-03-10T15:37:09.354Z,9.16
2019-03-10T15:39:35.487Z,9.00
2019-03-10T15:42:01.787Z,9.05
2019-03-10T15:44:27.931Z,9.10
2019-03-10T15:46:53.990Z,9.06
2019-03-10T15:49:20.289Z,8.96
2019-03-10T15:51:46.655Z,8.92
2019-03-10T15:54:12.994Z,8.82
2019-03-10T15:56:39.114Z,8.93
2019-03-10T15:59:05.207Z,8.97
2019-03-10T16:01:31.256Z,8.88
2019-03-10T16:04:01.112Z,8.72
2019-03-10T16:06:27.301Z,8.65
2019-03-10T16:08:53.426Z,8.63
2019-03-10T16:11:23.133Z,8.74
2019-03-10T16:13:49.158Z,8.73
2019-03-10T16:16:16.483Z,8.70
2019-03-10T16:18:42.655Z,8.58
2019-03-10T16:21:09.389Z,8.59
2019-03-10T16:23:35.647Z,8.47
2019-03-10T16:26:01.917Z,8.47
2019-03-10T16:28:27.989Z,8.33
2019-03-10T16:31:00.207Z,8.30
2019-03-10T16:33:26.271Z,8.08
2019-03-10T16:35:52.562Z,7.89
2019-03-10T16:38:18.692Z,7.76
2019-03-10T16:40:44.849Z,7.73
2019-03-10T16:43:10.866Z,7.81
2019-03-10T16:45:37.009Z,7.76
2019-03-10T16:48:04.670Z,7.73
2019-03-10T16:50:30.903Z,7.62
2019-03-10T16:52:57.082Z,7.59
2019-03-10T16:55:23.459Z,7.57
2019-03-10T16:57:49.797Z,7.48
2019-03-10T17:00:18.468Z,7.67
2019-03-10T17:02:44.744Z,7.78
2019-03-10T17:05:18.545Z,7.63
2019-03-10T17:07:47.190Z,7.59
2019-03-10T17:10:15.200Z,7.55
2019-03-10T17:12:41.384Z,7.49
2019-03-10T17:15:19.096Z,7.39
2019-03-10T17:17:45.209Z,7.27
2019-03-10T17:20:13.512Z,7.18
2019-03-10T17:22:40.233Z,7.19
2019-03-10T17:25:07.798Z,7.16
2019-03-10T17:27:33.815Z,7.15
2019-03-10T17:30:00.345Z,7.16
2019-03-10T17:32:26.578Z,7.12
2019-03-10T17:34:52.778Z,7.07
2019-03-10T17:37:18.894Z,7.09
2019-03-10T17:39:45.027Z,7.11
2019-03-10T17:42:11.277Z,7.07
2019-03-10T17:44:41.381Z,7.07
2019-03-10T17:47:05.713Z,7.04
2019-03-10T17:49:32.284Z,7.02
2019-03-10T17:51:58.767Z,7.01
2019-03-10T17:54:24.809Z,7.00
2019-03-10T17:56:51.149Z,7.05
2019-03-10T17:59:17.388Z,6.99
2019-03-10T18:01:43.741Z,6.91
2019-03-10T18:04:10.042Z,6.88
2019-03-10T18:06:36.331Z,6.84
2019-03-10T18:09:04.511Z,6.91
2019-03-10T18:11:30.993Z,6.89
2019-03-10T18:13:57.208Z,6.78
2019-03-10T18:16:23.323Z,6.72
2019-03-10T18:18:49.427Z,6.76
2019-03-10T18:21:15.480Z,6.65
2019-03-10T18:23:41.827Z,6.69
2019-03-10T18:26:08.252Z,6.64
2019-03-10T18:28:34.399Z,6.71
2019-03-10T18:31:00.832Z,6.71
2019-03-10T18:33:27.242Z,6.63
2019-03-10T18:35:53.668Z,6.59
2019-03-10T18:38:19.796Z,6.60
2019-03-10T18:40:46.006Z,6.48
2019-03-10T18:43:12.361Z,6.50
2019-03-10T18:45:38.804Z,6.46
2019-03-10T18:48:05.091Z,6.50
2019-03-10T18:50:31.379Z,6.45
2019-03-10T18:52:57.622Z,6.46
2019-03-10T18:55:24.228Z,6.49
2019-03-10T18:57:52.210Z,6.45
2019-03-10T19:00:26.163Z,6.43
2019-03-10T19:02:53.112Z,6.41
2019-03-10T19:05:20.619Z,6.50
2019-03-10T19:07:46.939Z,6.40
2019-03-10T19:10:13.439Z,6.38
2019-03-10T19:12:39.488Z,6.33
2019-03-10T19:15:09.430Z,6.30
2019-03-10T19:17:36.796Z,6.31
2019-03-10T19:20:06.498Z,6.39
2019-03-10T19:22:32.687Z,6.30
2019-03-10T19:24:58.718Z,6.36
2019-03-10T19:27:30.209Z,6.40
2019-03-10T19:29:53.054Z,6.50
2019-03-10T19:32:19.158Z,6.48
2019-03-10T19:34:45.289Z,6.42
2019-03-10T19:37:11.641Z,6.37
2019-03-10T19:39:37.767Z,6.33
2019-03-10T19:42:03.832Z,6.33
2019-03-10T19:44:29.906Z,6.29
2019-03-10T19:46:56.313Z,6.33
2019-03-10T19:49:24.183Z,6.38
2019-03-10T19:51:50.286Z,6.26
2019-03-10T19:54:16.438Z,6.21
2019-03-10T19:56:42.559Z,6.23
2019-03-10T19:59:08.593Z,6.26
2019-03-10T20:01:34.710Z,6.21
2019-03-10T20:04:01.073Z,6.21
2019-03-10T20:06:27.080Z,6.29
2019-03-10T20:08:53.129Z,6.17
2019-03-10T20:11:19.189Z,6.12
2019-03-10T20:14:05.248Z,6.09
2019-03-10T20:16:31.715Z,6.01
2019-03-10T20:18:57.821Z,5.91
2019-03-10T20:21:24.069Z,5.98
2019-03-10T20:23:50.386Z,5.86
2019-03-10T20:26:16.531Z,5.85
2019-03-10T20:28:43.906Z,5.89
2019-03-10T20:31:09.998Z,5.89
2019-03-10T20:33:36.381Z,5.83
2019-03-10T20:36:02.687Z,5.79
2019-03-10T20:38:28.826Z,5.80
2019-03-10T20:40:54.949Z,5.74
2019-03-10T20:43:21.180Z,5.77
2019-03-10T20:45:47.277Z,5.69
2019-03-10T20:48:13.375Z,5.67
2019-03-10T20:50:39.939Z,5.62
2019-03-10T20:53:06.070Z,5.69
2019-03-10T20:55:32.299Z,5.72
2019-03-10T20:57:58.627Z,5.69
2019-03-10T21:00:26.821Z,5.75
2019-03-10T21:02:53.359Z,5.71
2019-03-10T21:05:19.554Z,5.80
2019-03-10T21:07:45.846Z,5.72
2019-03-10T21:10:21.140Z,5.75
2019-03-10T21:12:47.265Z,5.77
2019-03-10T21:15:15.319Z,5.77
2019-03-10T21:17:41.541Z,5.70
2019-03-10T21:20:12.905Z,5.65
2019-03-10T21:22:39.230Z,5.64
2019-03-10T21:25:17.867Z,5.61
2019-03-10T21:27:44.094Z,5.59
2019-03-10T21:30:19.045Z,5.53
2019-03-10T21:32:45.107Z,5.51
2019-03-10T21:35:17.657Z,5.55
2019-03-10T21:37:39.067Z,5.55
2019-03-10T21:40:11.523Z,5.46
2019-03-10T21:42:37.621Z,5.34
2019-03-10T21:45:06.032Z,5.38
2019-03-10T21:47:32.048Z,5.40
2019-03-10T21:49:58.154Z,5.38
2019-03-10T21:52:24.358Z,5.38
2019-03-10T21:54:50.428Z,5.27
2019-03-10T21:57:16.558Z,5.33
2019-03-10T21:59:42.656Z,5.25
2019-03-10T22:02:08.759Z,5.27
2019-03-10T22:04:34.850Z,5.25
2019-03-10T22:07:01.180Z,5.20
2019-03-10T22:09:27.308Z,5.24
2019-03-10T22:11:53.391Z,5.15
2019-03-10T22:14:19.433Z,5.02
2019-03-10T22:16:45.623Z,5.03
2019-03-10T22:19:21.953Z,5.07
2019-03-10T22:21:39.939Z,5.11
2019-03-10T22:24:06.273Z,5.05
2019-03-10T22:26:32.328Z,5.16
2019-03-10T22:29:04.382Z,5.57
2019-03-10T22:31:30.743Z,5.43
2019-03-10T22:33:56.985Z,5.16
2019-03-10T22:36:23.088Z,5.20
2019-03-10T22:38:49.296Z,5.18
2019-03-10T22:41:15.433Z,5.05
2019-03-10T22:43:41.579Z,5.10
2019-03-10T22:46:07.768Z,4.98
2019-03-10T22:48:33.880Z,4.84
2019-03-10T22:51:00.007Z,4.92
2019-03-10T22:53:26.075Z,4.88
2019-03-10T22:55:52.163Z,4.92
2019-03-10T22:58:18.383Z,4.89
2019-03-10T23:00:46.389Z,4.77
2019-03-10T23:03:12.594Z,4.73
2019-03-10T23:05:41.377Z,4.76
2019-03-10T23:08:06.787Z,4.75
2019-03-10T23:10:33.136Z,4.66
2019-03-10T23:12:59.302Z,4.76
2019-03-10T23:15:25.625Z,4.72
2019-03-10T23:17:51.835Z,4.61
2019-03-10T23:20:17.941Z,4.62
2019-03-10T23:22:44.156Z,4.58
2019-03-10T23:25:10.741Z,4.54
2019-03-10T23:27:37.067Z,4.59
2019-03-10T23:30:06.528Z,4.57
2019-03-10T23:32:32.726Z,4.61
2019-03-10T23:34:58.748Z,4.56
2019-03-10T23:37:24.983Z,4.54
2019-03-10T23:39:51.136Z,4.49
2019-03-10T23:42:17.407Z,4.47
2019-03-10T23:44:43.558Z,4.49
2019-03-10T23:47:09.763Z,4.44
2019-03-10T23:49:39.805Z,4.38
2019-03-10T23:52:06.368Z,4.34
2019-03-10T23:54:38.648Z,4.36
2019-03-10T23:57:04.788Z,4.39
2019-03-10T23:59:30.972Z,4.35
